Time;durP1;ratioP1;P1;durP2;ratioP2;P2;SDS_P1;SDS_P2;PMS_P1;PMS_P2;Temp;Humidity;BMP_temperature;BMP_pressure;BME280_temperature;BME280_humidity;BME280_pressure;Samples;Min_cycle;Max_cycle;Signal;HPM_P1;HPM_P2
2023/03/02 00:00:53;;;;;;;;;;;;;;;;;;4976260;28;20012;-47
2023/03/02 00:03:19;;;;;;;;;;;;;;;;;;4976030;28;19933;-46
2023/03/02 00:05:46;;;;;;;;;;;;;;;;;;4976680;28;20046;-47
2023/03/02 00:08:11;;;;;;;;;;;;;;;;;;4973700;28;19906;-45
2023/03/02 00:10:37;;;;;;;;;;;;;;;;;;4971795;28;20052;-45
2023/03/02 00:13:03;;;;;;;;;;;;;;;;;;4976386;28;19941;-44
2023/03/02 00:15:29;;;;;;;;;;;;;;;;;;4963711;28;19918;-45
2023/03/02 00:17:55;;;;;;;;;;;;;;;;;;4976633;28;20435;-45
2023/03/02 00:20:21;;;;;;;;;;;;;;;;;;4975327;28;19921;-45
2023/03/02 00:22:47;;;;;;;;;;;;;;;;;;4969822;28;19906;-45
2023/03/02 00:25:13;;;;;;;;;;;;;;;;;;4970092;28;19906;-45
2023/03/02 00:27:39;;;;;;;;;;;;;;;;;;4964379;28;19909;-45
2023/03/02 00:30:05;;;;;;;;;;;;;;;;;;4975138;28;20449;-44
2023/03/02 00:32:30;;;;;;;;;;;;;;;;;;4967049;28;19917;-45
2023/03/02 00:34:57;;;;;;;;;;;;;;;;;;4975610;28;19981;-45
2023/03/02 00:37:24;;;;;;;;;;;;;;;;;;4975457;28;20057;-45
2023/03/02 00:39:50;;;;;;;;;;;;;;;;;;4974476;28;19906;-46
2023/03/02 00:42:16;;;;;;;;;;;;;;;;;;4975299;28;19913;-46
2023/03/02 00:44:42;;;;;;;;;;;;;;;;;;4975115;28;19984;-46
2023/03/02 00:47:08;;;;;;;;;;;;;;;;;;4975146;28;19913;-45
2023/03/02 00:49:35;;;;;;;;;;;;;;;;;;4960803;28;20259;-46
2023/03/02 00:52:01;;;;;;;;;;;;;;;;;;4976035;28;20278;-45
2023/03/02 00:54:27;;;;;;;;;;;;;;;;;;4974863;28;20016;-45
2023/03/02 00:56:52;;;;;;;;;;;;;;;;;;4974734;28;19906;-45
2023/03/02 00:59:27;;;;;;;;;;;;;;;;;;4969170;28;19917;-45
2023/03/02 01:01:56;;;;;;;;;;;;;;;;;;4975833;28;20019;-45
2023/03/02 01:04:22;;;;;;;;;;;;;;;;;;4974219;28;20075;-46
2023/03/02 01:06:48;;;;;;;;;;;;;;;;;;4962950;28;19957;-45
2023/03/02 01:09:14;;;;;;;;;;;;;;;;;;4965055;28;19911;-45
2023/03/02 01:11:40;;;;;;;;;;;;;;;;;;4975312;28;19906;-45
2023/03/02 01:14:06;;;;;;;;;;;;;;;;;;4974063;28;20264;-45
2023/03/02 01:16:32;;;;;;;;;;;;;;;;;;4975846;28;20009;-45
2023/03/02 01:18:57;;;;;;;;;;;;;;;;;;4975445;28;19914;-45
2023/03/02 01:21:23;;;;;;;;;;;;;;;;;;4972790;28;19960;-45
2023/03/02 01:23:50;;;;;;;;;;;;;;;;;;4967451;28;20260;-48
2023/03/02 01:26:16;;;;;;;;;;;;;;;;;;4973660;28;19956;-45
2023/03/02 01:28:42;;;;;;;;;;;;;;;;;;4975187;28;20320;-46
2023/03/02 01:31:08;;;;;;;;;;;;;;;;;;4974121;28;19961;-45
2023/03/02 01:33:34;;;;;;;;;;;;;;;;;;4975541;28;19910;-47
2023/03/02 01:35:59;;;;;;;;;;;;;;;;;;4974561;28;19965;-46
2023/03/02 01:38:25;;;;;;;;;;;;;;;;;;4971256;28;19925;-46
2023/03/02 01:40:51;;;;;;;;;;;;;;;;;;4967706;28;19933;-46
2023/03/02 01:43:17;;;;;;;;;;;;;;;;;;4973887;28;19906;-45
2023/03/02 01:45:43;;;;;;;;;;;;;;;;;;4974556;28;19906;-47
2023/03/02 01:48:09;;;;;;;;;;;;;;;;;;4970020;28;19929;-45
2023/03/02 01:50:35;;;;;;;;;;;;;;;;;;4967123;28;19913;-45
2023/03/02 01:53:00;;;;;;;;;;;;;;;;;;4974399;28;20287;-45
2023/03/02 01:55:26;;;;;;;;;;;;;;;;;;4973620;28;19913;-49
2023/03/02 01:57:52;;;;;;;;;;;;;;;;;;4966800;28;20430;-49
2023/03/02 02:00:18;;;;;;;;;;;;;;;;;;4973231;28;19913;-46
2023/03/02 02:02:44;;;;;;;;;;;;;;;;;;4974590;28;19910;-46
2023/03/02 02:05:10;;;;;;;;;;;;;;;;;;4973164;28;19906;-49
2023/03/02 02:07:36;;;;;;;;;;;;;;;;;;4965164;28;19917;-48
2023/03/02 02:10:02;;;;;;;;;;;;;;;;;;4964476;28;19961;-45
2023/03/02 02:12:27;;;;;;;;;;;;;;;;;;4973963;28;20276;-47
2023/03/02 02:14:59;;;;;;;;;;;;;;;;;;4973393;28;19922;-45
2023/03/02 02:17:25;;;;;;;;;;;;;;;;;;4973619;28;19910;-46
2023/03/02 02:19:51;;;;;;;;;;;;;;;;;;4973921;28;19910;-47
2023/03/02 02:22:21;;;;;;;;;;;;;;;;;;4961314;28;19965;-44
2023/03/02 02:24:47;;;;;;;;;;;;;;;;;;4964848;28;20338;-44
2023/03/02 02:27:13;;;;;;;;;;;;;;;;;;4970345;28;19906;-49
2023/03/02 02:29:39;;;;;;;;;;;;;;;;;;4973456;28;19906;-46
2023/03/02 02:32:05;;;;;;;;;;;;;;;;;;4973529;28;19917;-44
2023/03/02 02:34:31;;;;;;;;;;;;;;;;;;4973664;28;19906;-45
2023/03/02 02:36:57;;;;;;;;;;;;;;;;;;4974107;28;20378;-45
2023/03/02 02:39:23;;;;;;;;;;;;;;;;;;4972745;28;19910;-45
2023/03/02 02:41:48;;;;;;;;;;;;;;;;;;4962273;28;20359;-47
2023/03/02 02:44:14;;;;;;;;;;;;;;;;;;4972411;28;19910;-46
2023/03/02 02:46:40;;;;;;;;;;;;;;;;;;4973724;28;19961;-48
2023/03/02 02:49:06;;;;;;;;;;;;;;;;;;4973358;28;20001;-44
2023/03/02 02:51:33;;;;;;;;;;;;;;;;;;4973109;28;19976;-47
2023/03/02 02:53:59;;;;;;;;;;;;;;;;;;4973566;28;19997;-46
2023/03/02 02:56:25;;;;;;;;;;;;;;;;;;4969796;28;20100;-46
2023/03/02 02:58:50;;;;;;;;;;;;;;;;;;4965992;28;20434;-45
2023/03/02 03:01:16;;;;;;;;;;;;;;;;;;4972453;28;19906;-44
2023/03/02 03:03:42;;;;;;;;;;;;;;;;;;4973472;28;19913;-47
2023/03/02 03:06:08;;;;;;;;;;;;;;;;;;4965783;28;19906;-46
2023/03/02 03:08:34;;;;;;;;;;;;;;;;;;4962855;28;19949;-46
2023/03/02 03:11:00;;;;;;;;;;;;;;;;;;4972915;28;20260;-50
2023/03/02 03:13:26;;;;;;;;;;;;;;;;;;4968531;28;19910;-45
2023/03/02 03:15:52;;;;;;;;;;;;;;;;;;4950395;28;19959;-45
2023/03/02 03:18:17;;;;;;;;;;;;;;;;;;4953101;29;19918;-45
2023/03/02 03:20:44;;;;;;;;;;;;;;;;;;4952537;29;19917;-44
2023/03/02 03:23:10;;;;;;;;;;;;;;;;;;4951785;29;19930;-45
2023/03/02 03:25:36;;;;;;;;;;;;;;;;;;4952194;29;20367;-47
2023/03/02 03:28:02;;;;;;;;;;;;;;;;;;4952631;29;19997;-44
2023/03/02 03:30:28;;;;;;;;;;;;;;;;;;4952232;29;19961;-46
2023/03/02 03:32:54;;;;;;;;;;;;;;;;;;4948881;28;19989;-48
2023/03/02 03:35:20;;;;;;;;;;;;;;;;;;4951123;29;19917;-46
2023/03/02 03:37:47;;;;;;;;;;;;;;;;;;4952354;29;19925;-45
2023/03/02 03:40:13;;;;;;;;;;;;;;;;;;4951460;29;20438;-46
2023/03/02 03:42:39;;;;;;;;;;;;;;;;;;4952500;29;19954;-48
2023/03/02 03:45:05;;;;;;;;;;;;;;;;;;4951430;29;20314;-44
2023/03/02 03:47:30;;;;;;;;;;;;;;;;;;4952524;29;19914;-46
2023/03/02 03:49:56;;;;;;;;;;;;;;;;;;4948842;28;19906;-46
2023/03/02 03:52:29;;;;;;;;;;;;;;;;;;4951756;29;19997;-51
2023/03/02 03:54:55;;;;;;;;;;;;;;;;;;4952428;29;19907;-49
2023/03/02 03:57:21;;;;;;;;;;;;;;;;;;4951751;29;19913;-48
2023/03/02 03:59:46;;;;;;;;;;;;;;;;;;4952002;29;19961;-45
2023/03/02 04:02:12;;;;;;;;;;;;;;;;;;4951536;29;20345;-45
2023/03/02 04:04:38;;;;;;;;;;;;;;;;;;4934684;29;19913;-46
2023/03/02 04:07:04;;;;;;;;;;;;;;;;;;4950277;28;19969;-44
2023/03/02 04:09:36;;;;;;;;;;;;;;;;;;4951641;29;19910;-45
2023/03/02 04:12:02;;;;;;;;;;;;;;;;;;4952268;29;19916;-45
2023/03/02 04:14:28;;;;;;;;;;;;;;;;;;4957082;28;20024;-45
2023/03/02 04:16:54;;;;;;;;;;;;;;;;;;4957302;28;19917;-45
2023/03/02 04:19:20;;;;;;;;;;;;;;;;;;4958758;28;20316;-46
2023/03/02 04:21:45;;;;;;;;;;;;;;;;;;4958489;28;19906;-46
2023/03/02 04:24:11;;;;;;;;;;;;;;;;;;4950518;28;19913;-47
2023/03/02 04:26:37;;;;;;;;;;;;;;;;;;4964453;28;20035;-44
2023/03/02 04:29:03;;;;;;;;;;;;;;;;;;4963513;28;19907;-44
2023/03/02 04:31:30;;;;;;;;;;;;;;;;;;4960777;28;20363;-47
2023/03/02 04:33:56;;;;;;;;;;;;;;;;;;4966810;28;20290;-45
2023/03/02 04:36:21;;;;;;;;;;;;;;;;;;4963927;28;19988;-47
2023/03/02 04:38:47;;;;;;;;;;;;;;;;;;4965223;28;19914;-45
2023/03/02 04:41:13;;;;;;;;;;;;;;;;;;4948077;28;20344;-45
2023/03/02 04:43:39;;;;;;;;;;;;;;;;;;4960580;28;19953;-44
2023/03/02 04:46:05;;;;;;;;;;;;;;;;;;4965736;28;19929;-44
2023/03/02 04:48:31;;;;;;;;;;;;;;;;;;4964666;28;19910;-45
2023/03/02 04:50:57;;;;;;;;;;;;;;;;;;4962632;28;20422;-44
2023/03/02 04:53:22;;;;;;;;;;;;;;;;;;4963569;28;19902;-46
2023/03/02 04:55:48;;;;;;;;;;;;;;;;;;4937728;29;20271;-45
2023/03/02 04:58:14;;;;;;;;;;;;;;;;;;4958538;28;20016;-45
2023/03/02 05:00:40;;;;;;;;;;;;;;;;;;4963358;28;20014;-45
2023/03/02 05:03:06;;;;;;;;;;;;;;;;;;4963427;28;19940;-46
2023/03/02 05:05:32;;;;;;;;;;;;;;;;;;4960506;28;20336;-45
2023/03/02 05:07:58;;;;;;;;;;;;;;;;;;4962510;28;19906;-45
2023/03/02 05:10:24;;;;;;;;;;;;;;;;;;4958439;28;19910;-45
2023/03/02 05:13:03;;;;;;;;;;;;;;;;;;4951046;28;20360;-46
2023/03/02 05:15:29;;;;;;;;;;;;;;;;;;4973144;28;19918;-45
2023/03/02 05:17:55;;;;;;;;;;;;;;;;;;4975136;28;19914;-46
2023/03/02 05:20:26;;;;;;;;;;;;;;;;;;4974215;28;20009;-46
2023/03/02 05:22:52;;;;;;;;;;;;;;;;;;4975380;28;20256;-46
2023/03/02 05:25:17;;;;;;;;;;;;;;;;;;4974052;28;19906;-44
2023/03/02 05:27:43;;;;;;;;;;;;;;;;;;4975029;28;19910;-46
2023/03/02 05:30:09;;;;;;;;;;;;;;;;;;4970714;28;19953;-45
2023/03/02 05:32:35;;;;;;;;;;;;;;;;;;4975166;28;20290;-45
2023/03/02 05:35:01;;;;;;;;;;;;;;;;;;4973982;28;19906;-45
2023/03/02 05:37:27;;;;;;;;;;;;;;;;;;4972995;28;19961;-45
2023/03/02 05:39:53;;;;;;;;;;;;;;;;;;4974557;28;19907;-44
2023/03/02 05:42:19;;;;;;;;;;;;;;;;;;4974258;28;19988;-45
2023/03/02 05:44:44;;;;;;;;;;;;;;;;;;4974403;28;19953;-44
2023/03/02 05:47:10;;;;;;;;;;;;;;;;;;4969049;28;19910;-44
2023/03/02 05:49:36;;;;;;;;;;;;;;;;;;4974167;28;19930;-45
2023/03/02 05:52:02;;;;;;;;;;;;;;;;;;4974841;28;19957;-45
2023/03/02 05:54:28;;;;;;;;;;;;;;;;;;4973758;28;19923;-45
2023/03/02 05:56:54;;;;;;;;;;;;;;;;;;4974655;28;19952;-45
2023/03/02 05:59:20;;;;;;;;;;;;;;;;;;4973455;28;20363;-45
2023/03/02 06:01:47;;;;;;;;;;;;;;;;;;4972117;28;19906;-45
2023/03/02 06:04:13;;;;;;;;;;;;;;;;;;4970532;28;19985;-47
2023/03/02 06:06:39;;;;;;;;;;;;;;;;;;4985372;28;19988;-45
2023/03/02 06:09:05;;;;;;;;;;;;;;;;;;4975133;28;19953;-46
2023/03/02 06:11:31;;;;;;;;;;;;;;;;;;4973930;28;19906;-45
2023/03/02 06:13:56;;;;;;;;;;;;;;;;;;4973720;28;19925;-45
2023/03/02 06:16:22;;;;;;;;;;;;;;;;;;4942185;28;19910;-44
2023/03/02 06:18:48;;;;;;;;;;;;;;;;;;4961647;28;19997;-45
2023/03/02 06:21:14;;;;;;;;;;;;;;;;;;4959082;28;20306;-44
2023/03/02 06:23:40;;;;;;;;;;;;;;;;;;4957802;28;19914;-44
2023/03/02 06:26:07;;;;;;;;;;;;;;;;;;4955575;28;19910;-45
2023/03/02 06:28:32;;;;;;;;;;;;;;;;;;4960259;28;19950;-45
2023/03/02 06:30:59;;;;;;;;;;;;;;;;;;4954515;28;19957;-46
2023/03/02 06:33:25;;;;;;;;;;;;;;;;;;4958446;28;19907;-45
2023/03/02 06:35:51;;;;;;;;;;;;;;;;;;4962556;28;20001;-45
2023/03/02 06:38:17;;;;;;;;;;;;;;;;;;4963416;28;19997;-45
2023/03/02 06:40:43;;;;;;;;;;;;;;;;;;4963593;28;19906;-45
2023/03/02 06:43:08;;;;;;;;;;;;;;;;;;4966268;28;19905;-46
2023/03/02 06:45:34;;;;;;;;;;;;;;;;;;4963130;28;20000;-45
2023/03/02 06:48:00;;;;;;;;;;;;;;;;;;4960493;28;19969;-45
2023/03/02 06:50:27;;;;;;;;;;;;;;;;;;4954711;28;19917;-44
2023/03/02 06:52:53;;;;;;;;;;;;;;;;;;4970156;28;20331;-45
2023/03/02 06:55:18;;;;;;;;;;;;;;;;;;4965307;28;19906;-44
2023/03/02 06:57:44;;;;;;;;;;;;;;;;;;4964560;28;19914;-46
2023/03/02 07:00:16;;;;;;;;;;;;;;;;;;4968967;28;19913;-45
2023/03/02 07:02:41;;;;;;;;;;;;;;;;;;4960834;28;19906;-45
2023/03/02 07:05:07;;;;;;;;;;;;;;;;;;4959107;28;20009;-46
2023/03/02 07:07:33;;;;;;;;;;;;;;;;;;4973500;28;20394;-46
2023/03/02 07:09:59;;;;;;;;;;;;;;;;;;4970029;28;19910;-46
2023/03/02 07:12:25;;;;;;;;;;;;;;;;;;4972286;28;19902;-46
2023/03/02 07:14:51;;;;;;;;;;;;;;;;;;4972360;28;19946;-45
2023/03/02 07:17:17;;;;;;;;;;;;;;;;;;4972525;28;19906;-45
2023/03/02 07:19:44;;;;;;;;;;;;;;;;;;4972389;28;20012;-45
2023/03/02 07:22:10;;;;;;;;;;;;;;;;;;4960698;28;20008;-45
2023/03/02 07:24:35;;;;;;;;;;;;;;;;;;4957137;28;20299;-45
2023/03/02 07:27:01;;;;;;;;;;;;;;;;;;4962508;28;19965;-45
2023/03/02 07:29:27;;;;;;;;;;;;;;;;;;4967284;28;20283;-45
2023/03/02 07:31:56;;;;;;;;;;;;;;;;;;4973016;28;19906;-45
2023/03/02 07:34:21;;;;;;;;;;;;;;;;;;4971847;28;19910;-45
2023/03/02 07:36:47;;;;;;;;;;;;;;;;;;4972944;28;20001;-45
2023/03/02 07:39:13;;;;;;;;;;;;;;;;;;4955292;28;19922;-45
2023/03/02 07:41:39;;;;;;;;;;;;;;;;;;4952024;28;20275;-45
2023/03/02 07:44:05;;;;;;;;;;;;;;;;;;4955589;28;20006;-46
2023/03/02 07:46:31;;;;;;;;;;;;;;;;;;4950250;28;19910;-45
2023/03/02 07:48:58;;;;;;;;;;;;;;;;;;4947863;28;19950;-46
2023/03/02 07:51:23;;;;;;;;;;;;;;;;;;4951674;28;19933;-47
2023/03/02 07:53:49;;;;;;;;;;;;;;;;;;4959007;28;19957;-45
2023/03/02 07:56:15;;;;;;;;;;;;;;;;;;4961613;28;19962;-48
2023/03/02 07:58:41;;;;;;;;;;;;;;;;;;4968494;28;19973;-45
2023/03/02 08:01:07;;;;;;;;;;;;;;;;;;4958055;28;19914;-45
2023/03/02 08:03:33;;;;;;;;;;;;;;;;;;4967592;28;19913;-44
2023/03/02 08:05:59;;;;;;;;;;;;;;;;;;4968130;28;19906;-46
2023/03/02 08:08:25;;;;;;;;;;;;;;;;;;4970923;28;20537;-45
2023/03/02 08:10:51;;;;;;;;;;;;;;;;;;4960263;28;20038;-45
2023/03/02 08:13:17;;;;;;;;;;;;;;;;;;4969748;28;19906;-44
2023/03/02 08:15:42;;;;;;;;;;;;;;;;;;4969301;28;19992;-45
2023/03/02 08:18:08;;;;;;;;;;;;;;;;;;4961039;28;19917;-44
2023/03/02 08:20:34;;;;;;;;;;;;;;;;;;4963229;28;19910;-47
2023/03/02 08:23:00;;;;;;;;;;;;;;;;;;4972699;28;19905;-45
2023/03/02 08:25:26;;;;;;;;;;;;;;;;;;4972378;28;19910;-44
2023/03/02 08:27:52;;;;;;;;;;;;;;;;;;4964957;28;19937;-44
2023/03/02 08:30:18;;;;;;;;;;;;;;;;;;4963746;28;19907;-44
2023/03/02 08:32:44;;;;;;;;;;;;;;;;;;4973548;28;19973;-44
2023/03/02 08:35:11;;;;;;;;;;;;;;;;;;4964099;28;19913;-47
2023/03/02 08:37:37;;;;;;;;;;;;;;;;;;4961397;28;20263;-44
2023/03/02 08:40:03;;;;;;;;;;;;;;;;;;4961358;28;19917;-44
2023/03/02 08:42:29;;;;;;;;;;;;;;;;;;4968953;28;20001;-45
2023/03/02 08:44:55;;;;;;;;;;;;;;;;;;4959734;28;19962;-46
2023/03/02 08:47:20;;;;;;;;;;;;;;;;;;4960492;28;20371;-48
2023/03/02 08:49:46;;;;;;;;;;;;;;;;;;4966804;28;19985;-45
2023/03/02 08:52:14;;;;;;;;;;;;;;;;;;4966953;28;19907;-45
2023/03/02 08:54:39;;;;;;;;;;;;;;;;;;4969276;28;20041;-44
2023/03/02 08:57:05;;;;;;;;;;;;;;;;;;4959528;28;19933;-44
2023/03/02 08:59:31;;;;;;;;;;;;;;;;;;4954184;28;19917;-44
2023/03/02 09:01:57;;;;;;;;;;;;;;;;;;4966594;28;20269;-44
2023/03/02 09:04:23;;;;;;;;;;;;;;;;;;4970428;28;19910;-44
2023/03/02 09:06:49;;;;;;;;;;;;;;;;;;4961764;28;19913;-45
2023/03/02 09:09:15;;;;;;;;;;;;;;;;;;4970386;28;19906;-45
2023/03/02 09:11:41;;;;;;;;;;;;;;;;;;4973543;28;19906;-46
2023/03/02 09:14:07;;;;;;;;;;;;;;;;;;4963424;28;20264;-44
2023/03/02 09:16:33;;;;;;;;;;;;;;;;;;4974686;28;19913;-47
2023/03/02 09:18:58;;;;;;;;;;;;;;;;;;4975229;28;19910;-44
2023/03/02 09:21:25;;;;;;;;;;;;;;;;;;4973854;28;19913;-44
2023/03/02 09:23:54;;;;;;;;;;;;;;;;;;4974830;28;19906;-44
2023/03/02 09:26:20;;;;;;;;;;;;;;;;;;4973528;28;19906;-45
2023/03/02 09:28:46;;;;;;;;;;;;;;;;;;4974987;28;19960;-45
2023/03/02 09:31:12;;;;;;;;;;;;;;;;;;4974207;28;19910;-45
2023/03/02 09:33:38;;;;;;;;;;;;;;;;;;4974394;28;19980;-44
2023/03/02 09:36:04;;;;;;;;;;;;;;;;;;4972036;28;19942;-45
2023/03/02 09:38:29;;;;;;;;;;;;;;;;;;4974208;28;20240;-45
2023/03/02 09:40:55;;;;;;;;;;;;;;;;;;4974494;28;19910;-45
2023/03/02 09:43:21;;;;;;;;;;;;;;;;;;4973782;28;20273;-45
2023/03/02 09:45:47;;;;;;;;;;;;;;;;;;4974370;28;19985;-47
2023/03/02 09:48:13;;;;;;;;;;;;;;;;;;4973814;28;19953;-44
2023/03/02 09:50:39;;;;;;;;;;;;;;;;;;4973964;28;19906;-43
2023/03/02 09:53:05;;;;;;;;;;;;;;;;;;4973886;28;19988;-44
2023/03/02 09:55:31;;;;;;;;;;;;;;;;;;4973482;28;20021;-45
2023/03/02 09:57:58;;;;;;;;;;;;;;;;;;4974113;28;19913;-46
2023/03/02 10:00:24;;;;;;;;;;;;;;;;;;4972845;28;19952;-46
2023/03/02 10:02:50;;;;;;;;;;;;;;;;;;4974145;28;19945;-45
2023/03/02 10:05:16;;;;;;;;;;;;;;;;;;4973071;28;19989;-44
2023/03/02 10:07:42;;;;;;;;;;;;;;;;;;4974028;28;19910;-49
2023/03/02 10:10:08;;;;;;;;;;;;;;;;;;4972547;28;19933;-44
2023/03/02 10:12:33;;;;;;;;;;;;;;;;;;4974269;28;20338;-44
2023/03/02 10:14:59;;;;;;;;;;;;;;;;;;4972850;28;19981;-45
2023/03/02 10:17:25;;;;;;;;;;;;;;;;;;4972981;28;19902;-44
2023/03/02 10:19:51;;;;;;;;;;;;;;;;;;4973608;28;20381;-45
2023/03/02 10:22:17;;;;;;;;;;;;;;;;;;4972629;28;19914;-44
2023/03/02 10:24:43;;;;;;;;;;;;;;;;;;4973130;28;20355;-44
2023/03/02 10:27:09;;;;;;;;;;;;;;;;;;4973154;28;19977;-46
2023/03/02 10:29:34;;;;;;;;;;;;;;;;;;4973120;28;19913;-44
2023/03/02 10:32:00;;;;;;;;;;;;;;;;;;4974184;28;19906;-44
2023/03/02 10:34:26;;;;;;;;;;;;;;;;;;4968044;28;19997;-45
2023/03/02 10:36:52;;;;;;;;;;;;;;;;;;4973620;28;19910;-44
2023/03/02 10:39:18;;;;;;;;;;;;;;;;;;4972208;28;20260;-45
2023/03/02 10:41:44;;;;;;;;;;;;;;;;;;4973255;28;19919;-44
2023/03/02 10:44:10;;;;;;;;;;;;;;;;;;4971948;28;19910;-45
2023/03/02 10:46:36;;;;;;;;;;;;;;;;;;4973786;28;20338;-44
2023/03/02 10:49:02;;;;;;;;;;;;;;;;;;4973445;28;19906;-44
2023/03/02 10:51:27;;;;;;;;;;;;;;;;;;4971363;28;19910;-44
2023/03/02 10:53:53;;;;;;;;;;;;;;;;;;4973008;28;19910;-44
2023/03/02 10:56:19;;;;;;;;;;;;;;;;;;4971711;28;19909;-45
2023/03/02 10:58:45;;;;;;;;;;;;;;;;;;4972895;28;19976;-44
2023/03/02 11:01:11;;;;;;;;;;;;;;;;;;4972156;28;20351;-45
2023/03/02 11:03:37;;;;;;;;;;;;;;;;;;4972991;28;19913;-44
2023/03/02 11:06:03;;;;;;;;;;;;;;;;;;4972643;28;19989;-44
2023/03/02 11:08:30;;;;;;;;;;;;;;;;;;4972058;28;20271;-44
2023/03/02 11:10:56;;;;;;;;;;;;;;;;;;4972682;28;20271;-44
2023/03/02 11:13:23;;;;;;;;;;;;;;;;;;4971861;28;19906;-44
2023/03/02 11:15:48;;;;;;;;;;;;;;;;;;4972157;28;20482;-45
2023/03/02 11:18:14;;;;;;;;;;;;;;;;;;4971323;28;20010;-45
2023/03/02 11:20:40;;;;;;;;;;;;;;;;;;4972670;28;19917;-44
2023/03/02 11:23:06;;;;;;;;;;;;;;;;;;4972091;28;19906;-44
2023/03/02 11:25:32;;;;;;;;;;;;;;;;;;4966019;28;19914;-45
2023/03/02 11:27:58;;;;;;;;;;;;;;;;;;4972539;28;20282;-45
2023/03/02 11:30:25;;;;;;;;;;;;;;;;;;4971635;28;20500;-44
2023/03/02 11:32:51;;;;;;;;;;;;;;;;;;4972461;28;19913;-45
2023/03/02 11:35:17;;;;;;;;;;;;;;;;;;4971792;28;20328;-45
2023/03/02 11:37:43;;;;;;;;;;;;;;;;;;4972176;28;19922;-45
2023/03/02 11:40:09;;;;;;;;;;;;;;;;;;4971247;28;19949;-46
2023/03/02 11:42:35;;;;;;;;;;;;;;;;;;4972963;28;19906;-44
2023/03/02 11:45:01;;;;;;;;;;;;;;;;;;4972523;28;19906;-45
2023/03/02 11:47:26;;;;;;;;;;;;;;;;;;4972031;28;19910;-46
2023/03/02 11:49:52;;;;;;;;;;;;;;;;;;4971914;28;20018;-44
2023/03/02 11:52:19;;;;;;;;;;;;;;;;;;4971791;28;20327;-44
2023/03/02 11:54:45;;;;;;;;;;;;;;;;;;4972056;28;20510;-44
2023/03/02 11:57:11;;;;;;;;;;;;;;;;;;4971420;28;19957;-45
2023/03/02 11:59:37;;;;;;;;;;;;;;;;;;4971865;28;19957;-44
2023/03/02 12:02:03;;;;;;;;;;;;;;;;;;4972272;28;20363;-46
2023/03/02 12:04:29;;;;;;;;;;;;;;;;;;4971883;28;19910;-44
2023/03/02 12:06:55;;;;;;;;;;;;;;;;;;4972378;28;20240;-44
2023/03/02 12:09:20;;;;;;;;;;;;;;;;;;4971516;28;20000;-45
2023/03/02 12:11:46;;;;;;;;;;;;;;;;;;4972458;28;19913;-48
2023/03/02 12:14:12;;;;;;;;;;;;;;;;;;4970779;28;19917;-45
2023/03/02 12:16:39;;;;;;;;;;;;;;;;;;4972440;28;20363;-45
2023/03/02 12:19:05;;;;;;;;;;;;;;;;;;4971903;28;19910;-45
2023/03/02 12:21:31;;;;;;;;;;;;;;;;;;4971757;28;19960;-47
2023/03/02 12:23:57;;;;;;;;;;;;;;;;;;4970270;28;20287;-46
2023/03/02 12:26:23;;;;;;;;;;;;;;;;;;4970871;28;19917;-45
2023/03/02 12:28:49;;;;;;;;;;;;;;;;;;4972608;28;19997;-45
2023/03/02 12:31:15;;;;;;;;;;;;;;;;;;4971002;28;20364;-46
2023/03/02 12:33:40;;;;;;;;;;;;;;;;;;4972114;28;19950;-48
2023/03/02 12:36:06;;;;;;;;;;;;;;;;;;4971086;28;19915;-44
2023/03/02 12:38:33;;;;;;;;;;;;;;;;;;4971151;28;19910;-44
2023/03/02 12:40:59;;;;;;;;;;;;;;;;;;4971199;28;19914;-44
2023/03/02 12:43:25;;;;;;;;;;;;;;;;;;4971145;28;19908;-44
2023/03/02 12:45:51;;;;;;;;;;;;;;;;;;4972684;28;19913;-45
2023/03/02 12:48:17;;;;;;;;;;;;;;;;;;4974442;28;19989;-44
2023/03/02 12:50:43;;;;;;;;;;;;;;;;;;4973867;28;19914;-44
2023/03/02 12:53:09;;;;;;;;;;;;;;;;;;4974830;28;20285;-44
2023/03/02 12:55:35;;;;;;;;;;;;;;;;;;4974558;28;20323;-45
2023/03/02 12:58:01;;;;;;;;;;;;;;;;;;4974097;28;19934;-44
2023/03/02 13:00:27;;;;;;;;;;;;;;;;;;4972651;28;19972;-45
2023/03/02 13:02:53;;;;;;;;;;;;;;;;;;4975009;28;19906;-46
2023/03/02 13:05:18;;;;;;;;;;;;;;;;;;4973977;28;19906;-45
2023/03/02 13:07:44;;;;;;;;;;;;;;;;;;4974896;28;19910;-45
2023/03/02 13:10:10;;;;;;;;;;;;;;;;;;4973769;28;19954;-46
2023/03/02 13:12:36;;;;;;;;;;;;;;;;;;4975120;28;19906;-44
2023/03/02 13:15:02;;;;;;;;;;;;;;;;;;4973737;28;19925;-44
2023/03/02 13:17:29;;;;;;;;;;;;;;;;;;4974188;28;19906;-45
2023/03/02 13:19:55;;;;;;;;;;;;;;;;;;4974040;28;19954;-45
2023/03/02 13:22:21;;;;;;;;;;;;;;;;;;4974304;28;19965;-45
2023/03/02 13:24:47;;;;;;;;;;;;;;;;;;4974644;28;19993;-44
2023/03/02 13:27:13;;;;;;;;;;;;;;;;;;4973770;28;20000;-44
2023/03/02 13:29:39;;;;;;;;;;;;;;;;;;4974328;28;20363;-44
2023/03/02 13:32:04;;;;;;;;;;;;;;;;;;4973525;28;19906;-44
2023/03/02 13:34:30;;;;;;;;;;;;;;;;;;4973976;28;19993;-44
2023/03/02 13:36:56;;;;;;;;;;;;;;;;;;4974286;28;19997;-44
2023/03/02 13:39:22;;;;;;;;;;;;;;;;;;4972699;28;19981;-44
2023/03/02 13:41:48;;;;;;;;;;;;;;;;;;4974478;28;20000;-45
2023/03/02 13:44:14;;;;;;;;;;;;;;;;;;4972402;28;19926;-46
2023/03/02 13:46:40;;;;;;;;;;;;;;;;;;4974361;28;19910;-44
2023/03/02 13:49:06;;;;;;;;;;;;;;;;;;4973648;28;19932;-45
2023/03/02 13:51:32;;;;;;;;;;;;;;;;;;4973973;28;19906;-45
2023/03/02 13:53:57;;;;;;;;;;;;;;;;;;4973622;28;19914;-44
2023/03/02 13:56:23;;;;;;;;;;;;;;;;;;4966696;28;19910;-45
2023/03/02 13:58:49;;;;;;;;;;;;;;;;;;4974114;28;19918;-45
2023/03/02 14:01:15;;;;;;;;;;;;;;;;;;4972570;28;19996;-46
2023/03/02 14:03:41;;;;;;;;;;;;;;;;;;4973855;28;20268;-44
2023/03/02 14:06:07;;;;;;;;;;;;;;;;;;4971088;28;19917;-45
2023/03/02 14:08:33;;;;;;;;;;;;;;;;;;4973979;28;20049;-44
2023/03/02 14:10:59;;;;;;;;;;;;;;;;;;4973445;28;19960;-44
2023/03/02 14:13:25;;;;;;;;;;;;;;;;;;4972732;28;19924;-45
2023/03/02 14:15:51;;;;;;;;;;;;;;;;;;4973248;28;19910;-44
2023/03/02 14:18:17;;;;;;;;;;;;;;;;;;4973079;28;19910;-45
2023/03/02 14:20:43;;;;;;;;;;;;;;;;;;4973663;28;19914;-47
2023/03/02 14:23:09;;;;;;;;;;;;;;;;;;4972494;28;19906;-48
2023/03/02 14:25:35;;;;;;;;;;;;;;;;;;4973243;28;20330;-46
2023/03/02 14:28:00;;;;;;;;;;;;;;;;;;4973399;28;19913;-45
2023/03/02 14:30:26;;;;;;;;;;;;;;;;;;4972106;28;19916;-47
2023/03/02 14:32:52;;;;;;;;;;;;;;;;;;4973487;28;19906;-47
2023/03/02 14:35:18;;;;;;;;;;;;;;;;;;4972570;28;19906;-44
2023/03/02 14:37:44;;;;;;;;;;;;;;;;;;4972701;28;19968;-44
2023/03/02 14:40:10;;;;;;;;;;;;;;;;;;4972152;28;19917;-45
2023/03/02 14:42:36;;;;;;;;;;;;;;;;;;4973004;28;20371;-44
2023/03/02 14:45:02;;;;;;;;;;;;;;;;;;4972560;28;19969;-46
2023/03/02 14:47:27;;;;;;;;;;;;;;;;;;4972897;28;19960;-46
2023/03/02 14:49:54;;;;;;;;;;;;;;;;;;4972849;28;19921;-45
2023/03/02 14:52:22;;;;;;;;;;;;;;;;;;4967190;28;19988;-48
2023/03/02 14:54:50;;;;;;;;;;;;;;;;;;4970430;28;20293;-46
2023/03/02 14:57:15;;;;;;;;;;;;;;;;;;4966117;28;19917;-45
2023/03/02 14:59:41;;;;;;;;;;;;;;;;;;4964930;28;19913;-45
2023/03/02 15:02:07;;;;;;;;;;;;;;;;;;4971216;28;19914;-45
2023/03/02 15:04:33;;;;;;;;;;;;;;;;;;4970647;28;19972;-45
2023/03/02 15:06:59;;;;;;;;;;;;;;;;;;4972574;28;19944;-44
2023/03/02 15:09:25;;;;;;;;;;;;;;;;;;4969036;28;19976;-44
2023/03/02 15:11:51;;;;;;;;;;;;;;;;;;4983316;28;19913;-46
2023/03/02 15:14:17;;;;;;;;;;;;;;;;;;4971741;28;19922;-46
2023/03/02 15:16:43;;;;;;;;;;;;;;;;;;4971832;28;20314;-47
2023/03/02 15:19:08;;;;;;;;;;;;;;;;;;4972181;28;19910;-46
2023/03/02 15:21:34;;;;;;;;;;;;;;;;;;4973499;28;19910;-48
2023/03/02 15:24:00;;;;;;;;;;;;;;;;;;4973408;28;19937;-46
2023/03/02 15:26:26;;;;;;;;;;;;;;;;;;4971878;28;19910;-47
2023/03/02 15:28:52;;;;;;;;;;;;;;;;;;4961503;28;19918;-45
2023/03/02 15:31:19;;;;;;;;;;;;;;;;;;4970114;28;19929;-45
2023/03/02 15:33:45;;;;;;;;;;;;;;;;;;4962033;28;19914;-45
2023/03/02 15:36:11;;;;;;;;;;;;;;;;;;4971172;28;19906;-44
2023/03/02 15:38:37;;;;;;;;;;;;;;;;;;4972387;28;19913;-44
2023/03/02 17:47:54;;;;;;;7.60;4.40;;;;;;;;;;5039540;27;1913202;-47
2023/03/02 17:50:21;;;;;;;8.13;4.43;;;;;;;;;;5070973;28;20052;-46
2023/03/02 17:52:47;;;;;;;7.47;4.63;;;;;;;;;;5074401;28;20045;-45
2023/03/02 17:55:13;;;;;;;9.07;4.97;;;;;;;;;;5083353;28;20031;-45
2023/03/02 17:57:39;;;;;;;6.85;3.70;;;;;;;;;;5069966;28;20453;-46
2023/03/02 18:00:08;;;;;;;7.70;3.78;;;;;;;;;;5086923;28;20021;-47
2023/03/02 18:02:34;;;;;;;4.75;3.53;;;;;;;;;;5069212;28;20044;-45
2023/03/02 18:05:00;;;;;;;7.43;4.20;;;;;;;;;;5074113;28;20522;-46
2023/03/02 18:07:26;;;;;;;7.93;3.40;;;;;;;;;;5084168;28;20052;-45
2023/03/02 18:09:52;;;;;;;6.65;3.88;;;;;;;;;;5071950;28;20032;-46
2023/03/02 18:12:18;;;;;;;6.50;4.32;;;;;;;;;;5083487;28;20036;-44
2023/03/02 18:14:44;;;;;;;7.22;4.00;;;;;;;;;;5082906;28;20497;-46
2023/03/02 18:17:11;;;;;;;5.25;3.97;;;;;;;;;;5067322;28;20102;-46
2023/03/02 18:19:37;;;;;;;4.93;3.03;;;;;;;;;;5070242;28;20020;-45
2023/03/02 18:22:03;;;;;;;11.32;4.10;;;;;;;;;;5079562;28;20043;-45
2023/03/02 18:24:30;;;;;;;7.78;4.45;;;;;;;;;;5083794;28;20032;-45
2023/03/02 18:26:56;;;;;;;7.10;4.53;;;;;;;;;;5073668;28;20049;-45
2023/03/02 18:29:22;;;;;;;6.45;3.72;;;;;;;;;;5071043;28;20028;-46
2023/03/02 18:31:49;;;;;;;8.13;3.85;;;;;;;;;;5083290;28;20016;-46
2023/03/02 18:34:15;;;;;;;6.57;4.25;;;;;;;;;;5079384;28;20034;-45
2023/03/02 18:36:41;;;;;;;5.47;3.50;;;;;;;;;;5074770;28;20072;-46